Time;durP1;ratioP1;P1;durP2;ratioP2;P2;SDS_P1;SDS_P2;PMS_P1;PMS_P2;Temp;Humidity;BMP_temperature;BMP_pressure;BME280_temperature;BME280_humidity;BME280_pressure;Samples;Min_cycle;Max_cycle;Signal;HPM_P1;HPM_P2
2023/06/07 00:00:29;;;;;;;14.43;6.67;;;10.20;97.50;;;;;;4805235;29;20045;-68
2023/06/07 00:02:56;;;;;;;15.93;6.63;;;10.20;97.20;;;;;;4792160;29;20092;-68
2023/06/07 00:05:23;;;;;;;16.38;6.07;;;10.20;97.20;;;;;;4805314;29;20058;-68
2023/06/07 00:07:48;;;;;;;16.30;6.03;;;10.20;97.30;;;;;;4806635;29;20571;-68
2023/06/07 00:10:14;;;;;;;19.53;6.13;;;10.20;98.10;;;;;;4793623;29;20054;-68
2023/06/07 00:12:41;;;;;;;15.17;5.47;;;10.20;98.20;;;;;;4807478;29;20127;-68
2023/06/07 00:15:07;;;;;;;13.57;5.55;;;10.20;98.30;;;;;;4804812;29;20053;-68
2023/06/07 00:17:33;;;;;;;14.90;5.10;;;10.20;98.60;;;;;;4805909;29;20046;-68
2023/06/07 00:20:00;;;;;;;15.35;5.43;;;10.20;98.20;;;;;;4804931;29;20135;-68
2023/06/07 00:22:26;;;;;;;13.82;5.07;;;10.30;98.30;;;;;;4803858;29;20043;-68
2023/06/07 00:24:51;;;;;;;11.90;5.13;;;10.30;98.20;;;;;;4804778;29;20061;-68
2023/06/07 00:27:18;;;;;;;13.07;5.17;;;10.30;98.00;;;;;;4807301;29;20054;-68
2023/06/07 00:29:43;;;;;;;12.98;5.78;;;10.40;98.20;;;;;;4790085;29;20149;-68
2023/06/07 00:32:10;;;;;;;14.83;5.43;;;10.40;98.40;;;;;;4810296;29;20058;-68
2023/06/07 00:34:36;;;;;;;12.25;5.22;;;10.40;98.90;;;;;;4805037;29;20809;-68
2023/06/07 00:37:02;;;;;;;11.37;5.40;;;10.40;98.20;;;;;;4810760;29;20045;-68
2023/06/07 00:39:28;;;;;;;15.43;4.90;;;10.40;98.40;;;;;;4806472;29;20065;-68
2023/06/07 00:41:53;;;;;;;17.02;5.05;;;10.40;98.40;;;;;;4789964;29;20117;-68
2023/06/07 00:44:19;;;;;;;17.57;4.90;;;10.40;98.80;;;;;;4804748;29;20191;-68
2023/06/07 00:46:45;;;;;;;17.27;4.80;;;10.40;98.80;;;;;;4807405;29;20042;-68
2023/06/07 00:49:16;;;;;;;10.00;4.47;;;10.40;98.10;;;;;;4805362;29;20053;-68
2023/06/07 00:51:42;;;;;;;11.32;3.95;;;10.40;98.00;;;;;;4789530;29;20042;-68
2023/06/07 00:54:08;;;;;;;16.92;4.47;;;10.40;98.10;;;;;;4795492;29;20065;-68
2023/06/07 00:56:35;;;;;;;16.38;4.32;;;10.40;98.10;;;;;;4806956;29;20066;-68
2023/06/07 00:59:02;;;;;;;15.40;5.68;;;10.40;98.20;;;;;;4791581;29;20085;-68
2023/06/07 01:01:29;;;;;;;15.85;4.53;;;10.30;98.30;;;;;;4789563;29;20103;-68
2023/06/07 01:03:55;;;;;;;13.82;4.32;;;10.30;98.80;;;;;;4805356;29;20050;-68
2023/06/07 01:06:24;;;;;;;13.82;4.68;;;10.30;98.40;;;;;;4792378;29;20061;-68
2023/06/07 01:08:51;;;;;;;15.57;4.57;;;10.30;98.50;;;;;;4793155;29;20045;-68
2023/06/07 01:11:20;;;;;;;15.55;4.65;;;10.30;98.50;;;;;;4815565;29;20061;-68
2023/06/07 01:13:47;;;;;;;18.23;4.82;;;10.40;98.50;;;;;;4805972;29;20053;-68
2023/06/07 01:16:13;;;;;;;16.95;4.70;;;10.30;98.90;;;;;;4791052;29;20057;-68
2023/06/07 01:18:42;;;;;;;20.10;5.03;;;10.30;98.60;;;;;;4804208;29;20042;-68
2023/06/07 01:21:13;;;;;;;20.67;5.00;;;10.40;98.50;;;;;;4805044;29;20291;-68
2023/06/07 01:23:40;;;;;;;16.67;4.43;;;10.40;98.90;;;;;;4804129;29;20105;-68
2023/06/07 01:26:06;;;;;;;12.60;4.80;;;10.40;98.90;;;;;;4805366;29;20691;-68
2023/06/07 01:28:33;;;;;;;19.95;4.75;;;10.40;98.70;;;;;;4809404;29;20042;-68
2023/06/07 01:31:01;;;;;;;12.93;3.92;;;10.40;99.20;;;;;;4788814;29;20051;-68
2023/06/07 01:33:29;;;;;;;18.77;4.78;;;10.30;99.00;;;;;;4803617;29;20057;-68
2023/06/07 01:35:56;;;;;;;16.42;4.10;;;10.30;99.10;;;;;;4800734;29;20035;-68
2023/06/07 01:38:23;;;;;;;14.50;3.83;;;10.40;98.80;;;;;;4789085;29;20042;-68
2023/06/07 01:40:51;;;;;;;16.98;5.00;;;10.40;99.00;;;;;;4791970;29;20729;-68
2023/06/07 01:43:18;;;;;;;13.35;4.13;;;10.40;99.20;;;;;;4804697;29;20045;-68
2023/06/07 01:45:44;;;;;;;15.32;4.88;;;10.40;99.00;;;;;;4803125;29;20054;-68
2023/06/07 01:48:10;;;;;;;14.60;4.07;;;10.40;99.00;;;;;;4812593;29;20081;-68
2023/06/07 01:50:36;;;;;;;17.07;5.00;;;10.50;99.30;;;;;;4803990;29;20100;-68
2023/06/07 01:53:02;;;;;;;14.67;5.00;;;10.50;99.20;;;;;;4805973;29;20303;-68
2023/06/07 01:55:28;;;;;;;13.23;4.30;;;10.50;99.30;;;;;;4803263;29;20046;-68
2023/06/07 01:58:03;;;;;;;13.50;4.63;;;10.50;98.80;;;;;;4805876;29;20841;-68
2023/06/07 02:00:45;;;;;;;14.80;3.97;;;10.60;99.50;;;;;;4805205;29;20111;-68
2023/06/07 02:03:19;;;;;;;12.80;3.50;;;10.60;99.60;;;;;;4803708;29;20642;-68
2023/06/07 02:05:56;;;;;;;14.52;3.78;;;10.60;99.60;;;;;;4808703;29;20056;-68
2023/06/07 02:08:30;;;;;;;15.48;4.50;;;10.60;99.60;;;;;;4787856;29;20046;-68
2023/06/07 02:10:57;;;;;;;12.10;4.33;;;10.60;99.80;;;;;;4805010;29;20091;-68
2023/06/07 02:13:25;;;;;;;12.68;4.50;;;10.60;99.50;;;;;;4792188;29;20332;-68
2023/06/07 02:15:51;;;;;;;16.88;3.83;;;10.60;99.30;;;;;;4797449;29;20456;-68
2023/06/07 02:18:21;;;;;;;8.70;3.37;;;10.70;99.00;;;;;;4810930;29;20050;-68
2023/06/07 02:20:47;;;;;;;13.45;4.20;;;10.70;99.30;;;;;;4795720;29;20338;-68
2023/06/07 02:23:13;;;;;;;14.38;4.20;;;10.70;99.10;;;;;;4789434;29;20046;-68
2023/06/07 02:25:39;;;;;;;12.30;4.28;;;10.70;99.20;;;;;;4788418;29;20473;-68
2023/06/07 02:28:04;;;;;;;12.37;4.57;;;10.70;99.60;;;;;;4803904;29;20050;-68
2023/06/07 02:30:30;;;;;;;15.80;4.30;;;10.80;99.40;;;;;;4794449;29;20384;-68
2023/06/07 02:32:56;;;;;;;12.57;3.93;;;10.70;99.40;;;;;;4788111;29;20054;-68
2023/06/07 02:35:22;;;;;;;14.90;3.90;;;10.80;99.30;;;;;;4803049;29;20127;-68
2023/06/07 02:37:48;;;;;;;13.20;3.97;;;10.80;99.30;;;;;;4803315;29;20099;-68
2023/06/07 02:40:14;;;;;;;12.83;3.87;;;10.80;98.90;;;;;;4805607;29;20050;-68
2023/06/07 02:42:47;;;;;;;12.82;3.63;;;10.80;98.70;;;;;;4787740;29;20096;-68
2023/06/07 02:45:14;;;;;;;15.13;4.05;;;10.80;99.00;;;;;;4802593;29;20050;-68
2023/06/07 02:47:40;;;;;;;17.10;3.80;;;10.90;98.70;;;;;;4803491;29;20141;-68
2023/06/07 02:50:07;;;;;;;15.15;4.55;;;10.90;98.70;;;;;;4803199;29;20047;-68
2023/06/07 02:52:33;;;;;;;19.05;5.03;;;10.90;98.60;;;;;;4803883;29;20473;-68
2023/06/07 02:55:00;;;;;;;14.07;3.80;;;10.90;98.70;;;;;;4806104;29;20043;-68
2023/06/07 02:57:26;;;;;;;17.35;3.95;;;10.90;98.80;;;;;;4802323;29;20046;-68
2023/06/07 02:59:54;;;;;;;13.97;5.63;;;10.90;98.50;;;;;;4800746;29;20056;-68
2023/06/07 03:02:20;;;;;;;15.65;3.33;;;10.90;98.60;;;;;;4803163;29;20327;-68
2023/06/07 03:04:46;;;;;;;11.98;3.78;;;11.00;98.30;;;;;;4787854;29;20064;-68
2023/06/07 03:07:12;;;;;;;11.47;3.67;;;11.00;98.40;;;;;;4807274;29;20478;-68
2023/06/07 03:09:39;;;;;;;11.88;3.53;;;11.00;98.70;;;;;;4805937;29;20411;-68
2023/06/07 03:12:06;;;;;;;14.98;4.20;;;11.00;98.70;;;;;;4789018;29;20062;-68
2023/06/07 03:14:32;;;;;;;13.02;3.42;;;11.00;98.00;;;;;;4802878;29;20768;-68
2023/06/07 03:16:58;;;;;;;13.32;3.25;;;11.00;97.90;;;;;;4802490;29;20122;-68
2023/06/07 03:19:24;;;;;;;13.27;3.97;;;11.00;98.00;;;;;;4787293;29;20125;-68
2023/06/07 03:21:53;;;;;;;11.70;2.80;;;11.10;97.80;;;;;;4805309;29;20045;-68
2023/06/07 03:24:19;;;;;;;13.48;3.13;;;11.10;97.70;;;;;;4805803;29;20049;-68
2023/06/07 03:26:45;;;;;;;9.23;2.90;;;11.10;97.30;;;;;;4789177;29;20058;-68
2023/06/07 03:29:10;;;;;;;12.63;3.53;;;11.10;97.20;;;;;;4807862;29;20165;-68
2023/06/07 03:31:36;;;;;;;19.77;4.07;;;11.10;97.30;;;;;;4799337;29;20046;-68
2023/06/07 03:34:02;;;;;;;15.02;3.22;;;11.10;97.40;;;;;;4796602;29;20046;-68
2023/06/07 03:36:31;;;;;;;14.65;3.05;;;11.10;97.30;;;;;;4802292;29;20073;-68
2023/06/07 03:38:58;;;;;;;12.27;3.20;;;11.20;97.50;;;;;;4787208;29;20050;-68
2023/06/07 03:41:25;;;;;;;8.43;3.20;;;11.20;97.90;;;;;;4805163;29;20414;-68
2023/06/07 03:43:51;;;;;;;12.70;3.30;;;11.20;98.10;;;;;;4805739;29;20054;-68
2023/06/07 03:46:17;;;;;;;14.55;2.97;;;11.20;97.70;;;;;;4792907;29;20092;-68
2023/06/07 03:48:43;;;;;;;14.93;3.57;;;11.20;97.40;;;;;;4810444;29;20503;-68
2023/06/07 03:51:09;;;;;;;14.63;3.80;;;11.20;97.40;;;;;;4805715;29;20056;-68
2023/06/07 03:53:35;;;;;;;11.68;4.13;;;11.30;97.50;;;;;;4805895;29;20046;-68
2023/06/07 03:56:01;;;;;;;19.47;4.57;;;11.30;97.10;;;;;;4795766;29;20046;-68
2023/06/07 03:58:26;;;;;;;23.77;5.27;;;11.30;96.70;;;;;;4807976;29;20384;-68
2023/06/07 04:00:53;;;;;;;14.47;4.37;;;11.30;96.70;;;;;;4805353;29;20494;-68
2023/06/07 04:03:24;;;;;;;12.63;4.47;;;11.30;96.60;;;;;;4805242;29;20046;-68
2023/06/07 04:05:53;;;;;;;16.15;4.97;;;11.40;96.50;;;;;;4811975;29;20057;-68
2023/06/07 04:08:19;;;;;;;19.45;5.60;;;11.40;96.90;;;;;;4809591;29;20415;-68
2023/06/07 04:10:45;;;;;;;12.38;4.70;;;11.40;96.80;;;;;;4804846;29;20042;-68
2023/06/07 04:13:11;;;;;;;11.83;4.50;;;11.40;96.90;;;;;;4792250;29;20046;-68
2023/06/07 04:15:37;;;;;;;16.60;4.83;;;11.50;96.90;;;;;;4805088;29;20089;-68
2023/06/07 04:18:03;;;;;;;17.00;4.23;;;11.50;96.60;;;;;;4804947;29;20058;-68
2023/06/07 04:20:29;;;;;;;12.53;3.30;;;11.50;96.80;;;;;;4789863;29;20133;-68
2023/06/07 04:22:55;;;;;;;14.18;3.10;;;11.50;96.30;;;;;;4792673;29;20561;-68
2023/06/07 04:25:24;;;;;;;13.35;3.72;;;11.50;96.10;;;;;;4803188;29;20046;-68
2023/06/07 04:27:51;;;;;;;12.23;3.63;;;11.60;96.20;;;;;;4802580;29;20081;-68
2023/06/07 04:30:20;;;;;;;16.25;3.50;;;11.60;96.20;;;;;;4807116;29;20054;-68
2023/06/07 04:32:46;;;;;;;12.30;3.40;;;11.60;96.40;;;;;;4788215;29;20074;-68
2023/06/07 04:35:14;;;;;;;11.13;3.97;;;11.70;95.90;;;;;;4798825;29;20078;-68
2023/06/07 04:37:42;;;;;;;10.55;3.22;;;11.70;95.80;;;;;;4788015;29;20054;-68
2023/06/07 04:40:09;;;;;;;13.65;3.17;;;11.70;95.50;;;;;;4803144;29;20049;-68
2023/06/07 04:42:37;;;;;;;12.33;3.30;;;11.70;95.50;;;;;;4802569;29;20046;-68
2023/06/07 04:45:04;;;;;;;15.27;4.00;;;11.80;95.20;;;;;;4807537;29;20299;-68
2023/06/07 04:47:32;;;;;;;16.75;3.58;;;11.80;95.20;;;;;;4799591;29;20334;-68
2023/06/07 04:49:59;;;;;;;12.00;3.87;;;11.80;94.90;;;;;;4802719;29;20058;-68
2023/06/07 04:52:25;;;;;;;10.00;3.17;;;11.90;94.50;;;;;;4802074;29;20355;-68
2023/06/07 04:54:51;;;;;;;12.87;2.97;;;11.90;94.40;;;;;;4800713;29;20323;-68
2023/06/07 04:57:18;;;;;;;9.70;3.13;;;12.00;94.40;;;;;;4802548;29;20287;-68
2023/06/07 04:59:44;;;;;;;10.87;3.40;;;12.00;94.40;;;;;;4787205;29;20299;-68
2023/06/07 05:02:10;;;;;;;12.60;3.27;;;12.00;94.00;;;;;;4802179;29;20291;-68
2023/06/07 05:04:38;;;;;;;16.20;4.07;;;12.10;94.00;;;;;;4802147;29;20307;-68
2023/06/07 05:07:08;;;;;;;15.60;4.07;;;12.10;94.10;;;;;;4799474;29;20302;-68
2023/06/07 05:09:34;;;;;;;11.30;3.30;;;12.20;93.30;;;;;;4802895;29;20323;-68
2023/06/07 05:12:00;;;;;;;12.50;3.73;;;12.20;92.90;;;;;;4802760;29;20396;-68
2023/06/07 05:14:26;;;;;;;11.83;3.70;;;12.20;92.80;;;;;;4787657;29;20058;-68
2023/06/07 05:16:51;;;;;;;10.30;3.50;;;12.20;92.80;;;;;;4803497;29;20037;-68
2023/06/07 05:19:18;;;;;;;11.03;3.80;;;12.30;92.80;;;;;;4802554;29;20160;-68
2023/06/07 05:21:44;;;;;;;14.67;3.80;;;12.30;92.60;;;;;;4789660;29;20066;-68
2023/06/07 05:24:10;;;;;;;13.17;4.00;;;12.40;92.30;;;;;;4802332;29;20296;-68
2023/06/07 05:26:36;;;;;;;8.97;3.57;;;12.40;91.60;;;;;;4807229;29;20714;-68
2023/06/07 05:29:01;;;;;;;10.23;4.10;;;12.40;91.40;;;;;;4793232;29;20046;-68
2023/06/07 05:31:27;;;;;;;12.10;3.43;;;12.40;91.70;;;;;;4802888;29;20466;-68
2023/06/07 05:33:53;;;;;;;12.77;3.87;;;12.50;91.40;;;;;;4814503;29;20049;-68
2023/06/07 05:36:20;;;;;;;10.97;3.73;;;12.50;91.50;;;;;;4806339;29;20078;-68
2023/06/07 05:38:45;;;;;;;17.03;3.40;;;12.60;91.70;;;;;;4804862;29;20431;-68
2023/06/07 05:41:11;;;;;;;9.00;3.10;;;12.70;91.20;;;;;;4790270;29;20291;-68
2023/06/07 05:43:37;;;;;;;10.90;3.07;;;12.80;90.70;;;;;;4804789;29;20402;-68
2023/06/07 05:46:03;;;;;;;10.80;2.30;;;12.90;90.10;;;;;;4804607;29;20263;-68
2023/06/07 05:48:28;;;;;;;12.80;3.10;;;13.00;89.70;;;;;;4811258;29;20038;-68
2023/06/07 05:50:54;;;;;;;9.50;2.40;;;13.10;89.50;;;;;;4791694;29;20045;-68
2023/06/07 05:53:20;;;;;;;9.73;2.77;;;13.20;88.90;;;;;;4789234;29;20104;-68
2023/06/07 05:55:47;;;;;;;12.33;2.60;;;13.30;88.30;;;;;;4803503;29;20035;-68
2023/06/07 05:58:14;;;;;;;9.57;2.90;;;13.30;87.70;;;;;;4803595;29;20050;-68
2023/06/07 06:00:47;;;;;;;10.03;3.00;;;13.20;87.40;;;;;;4804127;29;20287;-68
2023/06/07 06:03:16;;;;;;;10.63;2.40;;;13.20;87.60;;;;;;4804162;29;20291;-68
2023/06/07 06:05:42;;;;;;;11.67;3.13;;;13.30;87.80;;;;;;4807479;29;20337;-68
2023/06/07 06:08:08;;;;;;;11.27;2.60;;;13.30;88.10;;;;;;4788470;29;20291;-68
2023/06/07 06:10:33;;;;;;;9.57;2.63;;;13.40;87.00;;;;;;4788727;29;20118;-68
2023/06/07 06:13:00;;;;;;;12.77;3.20;;;13.50;87.00;;;;;;4803532;29;20101;-68
2023/06/07 06:15:25;;;;;;;10.63;3.60;;;13.50;86.50;;;;;;4803646;29;20051;-68
2023/06/07 06:17:54;;;;;;;13.53;2.80;;;13.50;86.80;;;;;;4788815;29;20291;-68
2023/06/07 06:20:21;;;;;;;10.47;2.70;;;13.60;86.60;;;;;;4803623;29;20058;-68
2023/06/07 06:22:46;;;;;;;9.47;2.57;;;13.70;85.70;;;;;;4804971;29;20380;-68
2023/06/07 06:25:13;;;;;;;10.13;3.33;;;13.80;85.10;;;;;;4803587;29;20370;-68
2023/06/07 06:27:39;;;;;;;10.67;2.77;;;13.90;84.70;;;;;;4803731;29;20500;-68
2023/06/07 06:30:06;;;;;;;9.57;3.00;;;14.00;85.00;;;;;;4803212;29;20299;-68
2023/06/07 06:32:32;;;;;;;12.40;3.13;;;14.10;84.50;;;;;;4786346;29;20138;-68
2023/06/07 06:34:58;;;;;;;10.60;2.90;;;14.20;83.60;;;;;;4802813;29;20721;-68
2023/06/07 06:37:23;;;;;;;12.10;3.03;;;14.20;83.40;;;;;;4787012;29;20050;-68
2023/06/07 06:39:51;;;;;;;11.97;2.63;;;14.20;83.10;;;;;;4788282;29;20116;-68
2023/06/07 06:42:17;;;;;;;9.30;3.43;;;14.20;83.40;;;;;;4787615;29;20034;-68
2023/06/07 06:44:43;;;;;;;11.57;3.07;;;14.30;83.30;;;;;;4803354;29;20303;-68
2023/06/07 06:47:09;;;;;;;8.20;2.80;;;14.40;83.40;;;;;;4804276;29;20295;-69
2023/06/07 06:49:35;;;;;;;9.97;3.00;;;14.50;84.40;;;;;;4799007;29;20523;-69
2023/06/07 06:52:01;;;;;;;12.33;3.00;;;14.50;83.60;;;;;;4802375;29;20334;-69
2023/06/07 06:54:26;;;;;;;9.00;2.60;;;14.60;83.40;;;;;;4803441;29;20147;-68
2023/06/07 06:56:53;;;;;;;12.23;2.67;;;14.70;82.90;;;;;;4803669;29;20038;-69
2023/06/07 06:59:19;;;;;;;10.50;2.43;;;14.80;81.90;;;;;;4803758;29;20069;-69
2023/06/07 07:01:46;;;;;;;8.83;2.50;;;15.00;81.80;;;;;;4803786;29;20291;-70
2023/06/07 07:04:14;;;;;;;11.50;2.87;;;15.20;81.10;;;;;;4804081;29;20039;-70
2023/06/07 07:06:41;;;;;;;7.73;2.77;;;15.50;79.60;;;;;;4809901;29;20296;-70
2023/06/07 07:09:07;;;;;;;9.27;2.80;;;15.70;78.30;;;;;;4799222;29;20326;-71
2023/06/07 07:11:33;;;;;;;10.57;2.83;;;15.70;77.00;;;;;;4788413;29;20784;-70
2023/06/07 07:13:59;;;;;;;7.47;2.60;;;15.70;77.30;;;;;;4804198;29;20318;-70
2023/06/07 07:16:25;;;;;;;10.97;2.70;;;15.80;77.30;;;;;;4789101;29;20144;-70
2023/06/07 07:18:50;;;;;;;7.33;2.30;;;15.70;76.50;;;;;;4806710;29;20507;-69
2023/06/07 07:21:16;;;;;;;9.60;2.63;;;15.60;76.00;;;;;;4792072;29;20383;-69
2023/06/07 07:23:42;;;;;;;8.70;2.50;;;15.70;76.60;;;;;;4810315;29;20060;-69
2023/06/07 07:26:07;;;;;;;9.33;2.43;;;16.00;77.10;;;;;;4809926;29;20411;-69
2023/06/07 07:28:33;;;;;;;8.03;2.70;;;16.30;76.40;;;;;;4808377;29;20187;-69
2023/06/07 07:30:59;;;;;;;8.47;2.53;;;16.60;75.20;;;;;;4807260;29;20583;-70
2023/06/07 07:33:25;;;;;;;8.50;2.77;;;16.80;75.10;;;;;;4809375;29;20034;-70
2023/06/07 07:35:52;;;;;;;11.23;4.00;;;17.20;74.60;;;;;;4805940;29;20103;-70
2023/06/07 07:38:18;;;;;;;10.00;2.93;;;17.40;73.90;;;;;;4805307;29;20283;-70
2023/06/07 07:40:47;;;;;;;9.10;2.90;;;17.30;71.70;;;;;;4807072;29;20298;-70
2023/06/07 07:43:12;;;;;;;10.00;2.67;;;17.20;70.40;;;;;;4807623;29;20647;-69
2023/06/07 07:45:38;;;;;;;9.73;2.77;;;17.00;71.20;;;;;;4806905;29;20359;-69
2023/06/07 07:48:04;;;;;;;10.87;2.57;;;16.90;71.50;;;;;;4791785;29;20147;-69
2023/06/07 07:50:31;;;;;;;12.77;3.60;;;17.00;71.20;;;;;;4806749;29;20047;-69
2023/06/07 07:52:57;;;;;;;10.90;2.93;;;17.00;71.40;;;;;;4791658;29;20299;-69
2023/06/07 07:55:23;;;;;;;10.87;3.50;;;17.00;71.00;;;;;;4806807;29;20311;-70
2023/06/07 07:57:50;;;;;;;9.80;2.90;;;17.00;71.80;;;;;;4806092;29;20109;-70
2023/06/07 08:00:17;;;;;;;14.20;3.07;;;16.90;70.60;;;;;;4807474;29;20646;-69
2023/06/07 08:02:43;;;;;;;9.73;3.10;;;16.90;71.20;;;;;;4807050;29;20299;-69
2023/06/07 08:05:09;;;;;;;9.53;2.97;;;16.90;70.90;;;;;;4808295;29;20298;-70
2023/06/07 08:07:35;;;;;;;7.97;2.80;;;16.80;71.00;;;;;;4807260;29;20291;-69
2023/06/07 08:10:01;;;;;;;11.43;2.63;;;16.80;71.40;;;;;;4806807;29;20863;-69
2023/06/07 08:12:27;;;;;;;9.00;3.60;;;16.80;71.50;;;;;;4806799;29;20062;-69
2023/06/07 08:14:52;;;;;;;11.37;2.83;;;17.10;72.00;;;;;;4792217;29;20047;-69
2023/06/07 08:17:20;;;;;;;9.80;2.70;;;17.20;70.60;;;;;;4805767;29;20042;-69
2023/06/07 08:19:46;;;;;;;9.23;2.97;;;17.40;69.90;;;;;;4805967;29;20511;-69
2023/06/07 08:22:12;;;;;;;10.60;3.70;;;17.30;69.30;;;;;;4810902;29;20348;-69
2023/06/07 08:24:38;;;;;;;11.17;3.30;;;17.20;69.70;;;;;;4790913;29;20299;-69
2023/06/07 08:27:04;;;;;;;10.50;3.20;;;17.30;70.50;;;;;;4790362;29;20046;-69
2023/06/07 08:29:30;;;;;;;11.93;3.30;;;17.50;70.50;;;;;;4788427;29;20121;-69
2023/06/07 08:31:56;;;;;;;12.23;3.67;;;17.60;70.70;;;;;;4806827;29;20855;-69
2023/06/07 08:34:27;;;;;;;9.33;3.27;;;17.70;70.00;;;;;;4805172;29;20795;-69
2023/06/07 08:36:54;;;;;;;14.57;3.57;;;17.80;69.40;;;;;;4805367;29;20291;-68
2023/06/07 08:39:20;;;;;;;9.47;3.60;;;17.80;68.00;;;;;;4790275;29;20648;-68
2023/06/07 08:41:46;;;;;;;8.37;3.50;;;17.70;68.40;;;;;;4805339;29;20288;-68
2023/06/07 08:44:12;;;;;;;10.70;3.90;;;17.90;69.50;;;;;;4804578;29;20295;-68
2023/06/07 08:46:39;;;;;;;8.23;3.60;;;17.90;67.90;;;;;;4790399;29;20392;-69
2023/06/07 08:49:05;;;;;;;9.67;4.00;;;17.80;68.00;;;;;;4804224;29;20042;-68
2023/06/07 08:51:36;;;;;;;10.33;3.80;;;17.80;67.60;;;;;;4804915;29;20302;-68
2023/06/07 08:54:03;;;;;;;9.53;3.20;;;17.70;68.10;;;;;;4808800;29;20049;-68
2023/06/07 08:56:31;;;;;;;11.80;3.57;;;17.80;69.10;;;;;;4790720;29;20291;-68
2023/06/07 08:58:58;;;;;;;13.83;3.50;;;17.70;69.00;;;;;;4804398;29;20873;-69
2023/06/07 09:01:25;;;;;;;10.73;3.20;;;17.80;69.00;;;;;;4804074;29;20302;-69
2023/06/07 09:03:55;;;;;;;8.80;3.27;;;17.80;68.50;;;;;;4790193;29;20298;-69
2023/06/07 09:06:22;;;;;;;8.10;3.73;;;17.70;68.50;;;;;;4804987;29;20442;-69
2023/06/07 09:08:48;;;;;;;7.23;3.30;;;17.70;69.00;;;;;;4789518;29;20803;-69
2023/06/07 09:11:15;;;;;;;7.10;3.20;;;17.80;69.40;;;;;;4804059;29;20307;-69
2023/06/07 09:13:41;;;;;;;14.10;4.10;;;17.90;68.90;;;;;;4803273;29;20295;-68
2023/06/07 09:16:12;;;;;;;11.13;4.57;;;18.00;69.00;;;;;;4803870;29;20315;-69
2023/06/07 09:18:47;;;;;;;9.70;3.40;;;17.90;68.70;;;;;;4804347;29;20684;-69
2023/06/07 09:21:26;;;;;;;10.63;3.75;;;18.00;69.10;;;;;;4803442;29;20287;-69
2023/06/07 09:23:53;;;;;;;11.17;3.83;;;18.00;67.70;;;;;;4800975;29;20058;-69
2023/06/07 09:26:22;;;;;;;10.30;3.53;;;18.00;68.50;;;;;;4788797;29;20848;-69
2023/06/07 09:28:51;;;;;;;9.07;4.23;;;18.00;67.90;;;;;;4795730;29;20321;-69
2023/06/07 09:31:32;;;;;;;11.50;4.63;;;18.00;68.40;;;;;;4803722;29;20348;-69
2023/06/07 09:33:58;;;;;;;8.57;3.10;;;18.00;67.40;;;;;;4818292;29;20683;-69
2023/06/07 09:36:27;;;;;;;9.17;3.63;;;18.00;67.00;;;;;;4803730;29;20287;-69
2023/06/07 09:38:52;;;;;;;9.03;3.40;;;17.90;66.30;;;;;;4803833;29;20371;-69
2023/06/07 09:41:18;;;;;;;7.17;3.57;;;17.90;66.60;;;;;;4803758;29;20708;-69
2023/06/07 09:43:53;;;;;;;11.70;3.33;;;17.90;67.20;;;;;;4788700;29;20046;-69
2023/06/07 09:46:20;;;;;;;10.13;4.17;;;18.00;69.10;;;;;;4801571;29;20585;-69
2023/06/07 09:48:53;;;;;;;10.40;4.10;;;18.10;68.30;;;;;;4803341;29;20288;-70
2023/06/07 09:51:20;;;;;;;9.40;4.10;;;18.30;69.00;;;;;;4802896;29;20688;-70
2023/06/07 09:54:01;;;;;;;11.00;4.07;;;18.40;68.70;;;;;;4803816;29;20642;-70
2023/06/07 09:56:27;;;;;;;14.27;4.70;;;18.60;68.20;;;;;;4802934;29;20299;-70
2023/06/07 09:59:07;;;;;;;10.60;4.30;;;18.60;67.90;;;;;;4803369;29;20287;-69
2023/06/07 10:01:45;;;;;;;17.40;5.00;;;18.70;66.90;;;;;;4802902;29;20378;-69
2023/06/07 10:04:12;;;;;;;11.37;4.93;;;18.80;67.30;;;;;;4805285;29;20388;-69
2023/06/07 10:06:43;;;;;;;12.90;5.00;;;18.80;67.60;;;;;;4809908;29;20295;-69
2023/06/07 10:09:09;;;;;;;13.23;5.73;;;18.80;66.60;;;;;;4803380;29;20379;-69
2023/06/07 10:11:37;;;;;;;13.63;5.70;;;18.70;67.30;;;;;;4806470;29;20303;-69
2023/06/07 10:14:12;;;;;;;13.90;6.30;;;18.70;67.30;;;;;;4809840;29;20342;-69
2023/06/07 10:16:46;;;;;;;12.05;6.20;;;18.70;67.70;;;;;;4788563;29;20318;-69
2023/06/07 10:19:46;;;;;;;10.93;6.22;;;18.80;68.10;;;;;;4803253;29;20107;-70
2023/06/07 10:22:18;;;;;;;12.70;5.57;;;18.90;66.90;;;;;;4787288;29;20057;-70
2023/06/07 10:25:02;;;;;;;12.83;5.97;;;18.90;67.10;;;;;;4803859;29;20416;-69
2023/06/07 10:27:33;;;;;;;11.47;6.23;;;18.90;66.90;;;;;;4803546;29;20357;-69
2023/06/07 10:30:09;;;;;;;15.20;6.17;;;19.00;66.80;;;;;;4804329;29;20295;-69
2023/06/07 10:32:38;;;;;;;11.73;5.97;;;19.00;66.00;;;;;;4788959;29;20288;-69
2023/06/07 10:35:08;;;;;;;10.83;4.93;;;18.90;66.70;;;;;;4803260;29;20319;-69
2023/06/07 10:37:36;;;;;;;9.80;5.27;;;18.70;67.60;;;;;;4803449;29;20287;-70
2023/06/07 10:40:09;;;;;;;13.87;5.40;;;18.70;67.80;;;;;;4804220;29;20323;-70
2023/06/07 10:42:40;;;;;;;13.07;5.20;;;18.80;68.30;;;;;;4804027;29;20292;-70
2023/06/07 10:45:07;;;;;;;12.93;5.60;;;18.90;67.70;;;;;;4802925;29;20642;-70
2023/06/07 10:47:33;;;;;;;13.87;6.80;;;19.10;68.10;;;;;;4803413;29;20300;-70
2023/06/07 10:49:58;;;;;;;14.07;5.53;;;19.20;66.30;;;;;;4789055;29;20372;-70
2023/06/07 10:52:26;;;;;;;9.93;4.97;;;19.20;67.00;;;;;;4806564;29;20057;-70
2023/06/07 10:54:53;;;;;;;12.23;5.63;;;19.20;67.60;;;;;;4813802;29;20052;-71
2023/06/07 10:57:36;;;;;;;11.23;6.03;;;19.30;66.90;;;;;;4810919;29;20235;-71
2023/06/07 11:00:28;;;;;;;11.43;5.37;;;19.30;66.30;;;;;;4804976;29;20042;-72
2023/06/07 11:03:10;;;;;;;12.47;5.43;;;19.30;66.20;;;;;;4794851;29;20058;-70
2023/06/07 11:06:02;;;;;;;12.27;4.90;;;19.40;67.00;;;;;;4810190;29;20099;-72
2023/06/07 11:08:30;;;;;;;13.17;5.57;;;19.40;66.00;;;;;;4810677;29;20057;-71
2023/06/07 11:11:00;;;;;;;11.47;5.20;;;19.30;66.70;;;;;;4811776;29;20046;-71
2023/06/07 11:13:44;;;;;;;12.20;5.47;;;19.30;67.00;;;;;;4811089;29;20058;-72
2023/06/07 11:16:22;;;;;;;12.40;6.13;;;19.30;66.00;;;;;;4808671;29;20388;-72
2023/06/07 11:19:05;;;;;;;13.53;5.60;;;19.30;66.00;;;;;;4809349;29;20038;-72
2023/06/07 11:21:54;;;;;;;13.20;5.37;;;19.30;66.70;;;;;;4812844;29;20438;-71
2023/06/07 11:24:20;;;;;;;14.60;5.40;;;19.40;67.40;;;;;;4801108;29;20058;-71
2023/06/07 11:26:47;;;;;;;10.63;5.37;;;19.60;67.60;;;;;;4810086;29;20049;-71
2023/06/07 11:29:22;;;;;;;10.93;5.60;;;19.70;66.40;;;;;;4810103;29;20046;-70
2023/06/07 11:31:59;;;;;;;7.23;5.03;;;19.80;66.90;;;;;;4794322;29;20350;-71
2023/06/07 11:34:31;;;;;;;10.87;5.70;;;19.90;66.80;;;;;;4794498;29;20500;-71
2023/06/07 11:37:11;;;;;;;15.67;6.30;;;19.90;65.90;;;;;;4810396;29;20453;-71
2023/06/07 11:39:37;;;;;;;14.00;5.73;;;19.90;65.50;;;;;;4794301;29;20049;-72
2023/06/07 11:42:05;;;;;;;15.33;5.70;;;19.90;66.40;;;;;;4809853;29;20042;-72
2023/06/07 11:44:32;;;;;;;14.43;6.20;;;20.00;65.40;;;;;;4795937;29;20038;-72
2023/06/07 11:46:59;;;;;;;12.60;5.83;;;20.10;65.40;;;;;;4805096;29;20424;-72
2023/06/07 11:49:25;;;;;;;11.73;6.20;;;20.20;65.20;;;;;;4807670;29;20476;-72
2023/06/07 11:51:56;;;;;;;11.57;6.30;;;20.20;64.00;;;;;;4808920;29;20050;-72
2023/06/07 11:54:25;;;;;;;11.30;5.87;;;20.30;64.50;;;;;;4812623;29;20057;-73
2023/06/07 11:56:53;;;;;;;14.40;6.03;;;20.30;64.00;;;;;;4810801;29;20505;-71
2023/06/07 11:59:21;;;;;;;13.27;6.50;;;20.30;64.00;;;;;;4811543;29;20046;-71
2023/06/07 12:01:51;;;;;;;11.73;5.80;;;20.30;64.40;;;;;;4811521;29;20125;-71
2023/06/07 12:04:18;;;;;;;13.30;5.67;;;20.40;64.20;;;;;;4811797;29;20058;-72
2023/06/07 12:06:44;;;;;;;7.93;5.50;;;20.40;64.30;;;;;;4794357;29;20050;-71
2023/06/07 12:09:13;;;;;;;11.03;5.23;;;20.50;63.40;;;;;;4804024;29;20503;-71
2023/06/07 12:11:39;;;;;;;9.07;5.50;;;20.60;63.30;;;;;;4804853;29;20070;-71
2023/06/07 12:14:09;;;;;;;10.13;4.67;;;20.60;61.70;;;;;;4807903;29;20054;-71
2023/06/07 12:16:38;;;;;;;12.80;5.60;;;20.50;62.40;;;;;;4808246;29;20054;-71
2023/06/07 12:19:05;;;;;;;11.77;5.73;;;20.60;62.60;;;;;;4806913;29;20130;-71
2023/06/07 12:21:31;;;;;;;9.37;5.00;;;20.60;63.40;;;;;;4810675;29;20116;-71
2023/06/07 12:24:00;;;;;;;10.30;4.67;;;20.60;63.00;;;;;;4817067;29;20051;-71
2023/06/07 12:26:29;;;;;;;14.30;5.13;;;20.60;63.10;;;;;;4795735;29;20054;-71
2023/06/07 12:28:55;;;;;;;14.17;4.90;;;20.50;63.10;;;;;;4803660;29;20105;-71
2023/06/07 12:31:27;;;;;;;14.57;4.80;;;20.70;62.70;;;;;;4800914;29;20052;-71
2023/06/07 12:34:11;;;;;;;12.87;4.80;;;20.80;61.90;;;;;;4796766;29;20047;-71
2023/06/07 12:36:41;;;;;;;13.65;4.80;;;20.80;60.90;;;;;;4800884;29;20111;-71
2023/06/07 12:39:11;;;;;;;13.47;5.73;;;20.90;61.20;;;;;;4806916;29;20050;-71
2023/06/07 12:41:40;;;;;;;12.23;5.37;;;20.80;61.10;;;;;;4812586;29;20409;-71